Madrid, NY (13660)

11:58 PM EST on January 24, 2015 (GMT -0500)
West Potsdam | Change Station
CLOSE
Current Station
Personal Weather Station
Location: Potsdam, NY
Elevation: 364 ft
Nearby Weather Stations

Elev 364 ft 44.69 °N, 75.08 °W | Updated 3 minutes ago

Snow
Snow
29.7 °F
Feels Like 24 °F
N
6.0
Wind Variable Wind from SW
Gusts 10.0 mph

Today
High -- | Low -- °F
--% Chance of Precip.
Yesterday
High -- | Low -- °F
Precip. -- in
7:28 AM 4:57 PM
Waxing Crescent, 28% visible
Pressure 29.37 in
Visibility 2.5 miles
Clouds Mostly Cloudy 1200 ft
Overcast 2300 ft
Windchill 24 °F
Dew Point 28 °F
Humidity 95%
Rainfall 0.00 in
Snow Depth Not available.
UV 0.0 out of 12
Pollen .10 out of 12
Air Quality Not available.
Flu Activity Not available.
METAR KMSS 250453Z AUTO 24009KT 2 1/2SM -SN BR BKN012 OVC023 M01/M01 A2935 RMK AO2 SNB21 SLP944 P0000 T10111011 400001039

More Conditions Fewer Conditions

Pressure 29.37 in
Visibility 2.5 miles
Clouds Mostly Cloudy 1200 ft
Overcast 2300 ft
Windchill 24 °F
Dew Point 28 °F
Humidity 95%
Rainfall 0.00 in
Snow Depth Not available.
UV 0.0 out of 12
Pollen .10 out of 12
Air Quality Not available.
Flu Activity Not available.
METAR KMSS 250453Z AUTO 24009KT 2 1/2SM -SN BR BKN012 OVC023 M01/M01 A2935 RMK AO2 SNB21 SLP944 P0000 T10111011 400001039

More Conditions Fewer Conditions

10-Day Weather Forecast

Almanac

Astronomy

Jan. 24, 2015 Rise Set
Actual Time
Civil Twilight
Nautical Twilight
Astronomical Twilight
Moon
Length of Visible Light
Length of Day
Tomorrow will be .
, % of the Moon is Illuminated

Today's Extremes

State Highs State Lows

Community

WunderPhotos

Upload Photos

1,789,839 photos uploaded!

WunderBlogs® & News

Nearby

Air Quality

  Air Quality AQ Index Pollutant
Not available.

Snow Depth

Station Depth Elevation

Earthquake Activity

City Distance Mag. Time & Date
Minimum magnitude displayed is 2.5.

Coastal Water Temperatures

Place Temperature

Nearby Weather Stations